Time;durP1;ratioP1;P1;durP2;ratioP2;P2;SDS_P1;SDS_P2;PMS_P1;PMS_P2;Temp;Humidity;BMP_temperature;BMP_pressure;BME280_temperature;BME280_humidity;BME280_pressure;Samples;Min_cycle;Max_cycle;Signal;HPM_P1;HPM_P2
2021/05/23 00:01:30;;;;;;;1.57;1.20;;;10.50;99.90;;;;;;5064964;28;20170;-82
2021/05/23 00:03:56;;;;;;;3.50;1.47;;;10.50;99.90;;;;;;5064479;28;20204;-82
2021/05/23 00:06:22;;;;;;;3.10;1.40;;;10.50;99.90;;;;;;5064588;28;20182;-82
2021/05/23 00:08:47;;;;;;;1.90;1.27;;;10.50;99.90;;;;;;5063918;28;20199;-82
2021/05/23 00:11:13;;;;;;;5.07;1.40;;;10.50;99.90;;;;;;5063544;28;20195;-82
2021/05/23 00:13:45;;;;;;;5.33;1.40;;;10.50;99.90;;;;;;5060837;28;20209;-81
2021/05/23 00:16:16;;;;;;;1.83;1.63;;;10.50;99.90;;;;;;5058801;28;20209;-81
2021/05/23 00:18:46;;;;;;;3.80;1.47;;;10.50;99.90;;;;;;5059190;28;20182;-81
2021/05/23 00:21:13;;;;;;;4.67;1.60;;;10.50;99.90;;;;;;5059052;28;20174;-81
2021/05/23 00:23:39;;;;;;;2.70;2.00;;;10.50;99.90;;;;;;5059157;28;20217;-81
2021/05/23 00:26:05;;;;;;;5.67;2.30;;;10.50;99.90;;;;;;5060151;28;20205;-81
2021/05/23 00:28:31;;;;;;;1.80;1.37;;;10.50;99.90;;;;;;5060382;28;20181;-81
2021/05/23 00:31:01;;;;;;;3.77;1.40;;;10.40;99.90;;;;;;5060139;28;20636;-81
2021/05/23 00:33:27;;;;;;;3.00;1.70;;;10.40;99.90;;;;;;5059596;28;20202;-81
2021/05/23 00:35:53;;;;;;;3.47;1.60;;;;;;;;;;5059217;28;20633;-81
2021/05/23 00:38:18;;;;;;;2.03;1.47;;;10.40;99.90;;;;;;5059363;28;20193;-81
2021/05/23 00:40:45;;;;;;;2.37;1.20;;;;;;;;;;5058462;28;20563;-81
2021/05/23 00:43:13;;;;;;;1.80;1.27;;;10.30;99.90;;;;;;5058618;28;20667;-81
2021/05/23 00:45:38;;;;;;;3.17;1.63;;;10.30;99.90;;;;;;5058123;28;20667;-81
2021/05/23 00:48:05;;;;;;;3.77;1.17;;;10.30;99.90;;;;;;5058894;28;20178;-81
2021/05/23 00:50:30;;;;;;;3.63;1.63;;;10.20;99.90;;;;;;5058687;28;20192;-81
2021/05/23 00:52:56;;;;;;;3.00;1.30;;;;;;;;;;5058696;28;20198;-81
2021/05/23 00:55:23;;;;;;;2.10;1.20;;;10.20;99.90;;;;;;5059106;28;20209;-81
2021/05/23 00:57:49;;;;;;;1.60;1.20;;;10.20;99.90;;;;;;5061244;28;20195;-81
2021/05/23 01:00:53;;;;;;;3.03;1.73;;;10.10;99.90;;;;;;5060782;28;20172;-81
2021/05/23 01:03:30;;;;;;;3.53;1.60;;;10.20;99.90;;;;;;5062942;28;20189;-81
2021/05/23 01:06:05;;;;;;;10.70;4.53;;;10.20;99.90;;;;;;5061342;28;20178;-81
2021/05/23 01:08:32;;;;;;;7.50;3.20;;;10.10;99.90;;;;;;5062603;28;20202;-81
2021/05/23 01:11:16;;;;;;;6.03;2.50;;;10.00;99.90;;;;;;5062396;28;20531;-81
2021/05/23 01:14:04;;;;;;;2.70;1.40;;;10.00;99.90;;;;;;5060760;28;20204;-80
2021/05/23 01:16:36;;;;;;;3.47;1.57;;;10.00;99.90;;;;;;5060431;28;20270;-80
2021/05/23 01:19:03;;;;;;;2.60;1.40;;;9.90;99.90;;;;;;5060266;28;20181;-80
2021/05/23 01:21:35;;;;;;;2.47;1.17;;;9.90;99.90;;;;;;5060245;28;20200;-81
2021/05/23 01:24:04;;;;;;;7.17;1.57;;;9.80;99.90;;;;;;5059452;28;20217;-81
2021/05/23 01:26:35;;;;;;;2.10;1.00;;;9.70;99.90;;;;;;5059383;28;20278;-80
2021/05/23 01:29:05;;;;;;;6.13;1.37;;;9.70;99.90;;;;;;5060084;28;20170;-80
2021/05/23 01:31:32;;;;;;;2.00;1.03;;;9.70;99.90;;;;;;5060095;28;20636;-80
2021/05/23 01:33:59;;;;;;;3.13;1.00;;;9.50;99.90;;;;;;5059818;28;20192;-80
2021/05/23 01:36:32;;;;;;;2.60;0.87;;;9.40;99.90;;;;;;5057941;28;20207;-80
2021/05/23 01:38:59;;;;;;;2.00;0.70;;;9.30;99.90;;;;;;5063889;28;20178;-80
2021/05/23 01:41:26;;;;;;;1.30;0.80;;;9.20;99.90;;;;;;5066226;28;20178;-81
2021/05/23 01:43:51;;;;;;;0.90;0.80;;;9.10;99.90;;;;;;5057419;28;20559;-81
2021/05/23 01:46:18;;;;;;;0.80;0.80;;;8.90;99.90;;;;;;5068296;28;20190;-81
2021/05/23 01:48:44;;;;;;;1.20;0.80;;;8.80;99.90;;;;;;5061560;28;20677;-81
2021/05/23 01:51:10;;;;;;;0.90;0.70;;;8.70;99.90;;;;;;5062727;28;20303;-81
2021/05/23 01:53:37;;;;;;;1.00;0.90;;;8.60;99.90;;;;;;5062967;28;20236;-81
2021/05/23 01:56:06;;;;;;;0.87;0.70;;;8.50;99.90;;;;;;5060281;28;20287;-81
2021/05/23 01:58:32;;;;;;;1.60;0.90;;;8.40;99.90;;;;;;5062790;28;20178;-81
2021/05/23 02:00:58;;;;;;;1.53;0.87;;;8.30;99.90;;;;;;5063118;28;20181;-81
2021/05/23 02:03:25;;;;;;;0.87;0.80;;;8.20;99.90;;;;;;5062248;28;20255;-81
2021/05/23 02:05:55;;;;;;;0.90;0.67;;;8.10;99.90;;;;;;5061989;28;20186;-81
2021/05/23 02:08:23;;;;;;;0.90;0.70;;;8.10;99.90;;;;;;5062720;28;20189;-81
2021/05/23 02:10:51;;;;;;;1.20;0.80;;;8.00;99.90;;;;;;5064219;28;20236;-81
2021/05/23 02:13:17;;;;;;;1.27;0.80;;;8.00;99.90;;;;;;5063839;28;20573;-81
2021/05/23 02:15:43;;;;;;;1.10;1.00;;;7.90;99.90;;;;;;5065034;28;20211;-81
2021/05/23 02:18:09;;;;;;;2.40;0.70;;;7.90;99.90;;;;;;5065009;28;20651;-81
2021/05/23 02:20:35;;;;;;;3.53;0.90;;;7.80;99.90;;;;;;5060415;28;20713;-81
2021/05/23 02:23:04;;;;;;;1.33;0.60;;;7.80;99.90;;;;;;5059465;28;20278;-80
2021/05/23 02:25:32;;;;;;;1.23;0.80;;;7.70;99.90;;;;;;5061122;28;20181;-81
2021/05/23 02:28:01;;;;;;;0.60;0.60;;;7.70;99.90;;;;;;5059600;28;20655;-81
2021/05/23 02:30:34;;;;;;;0.90;0.77;;;7.70;99.90;;;;;;5059161;28;20185;-81
2021/05/23 02:33:02;;;;;;;1.17;0.83;;;7.70;99.90;;;;;;5059786;28;20205;-81
2021/05/23 02:35:29;;;;;;;1.13;0.80;;;7.60;99.90;;;;;;5060942;28;20210;-81
2021/05/23 02:37:55;;;;;;;1.03;0.93;;;7.50;99.90;;;;;;5059656;28;20619;-81
2021/05/23 02:40:24;;;;;;;2.57;1.00;;;7.60;99.90;;;;;;5059228;28;20209;-81
2021/05/23 02:42:50;;;;;;;1.27;0.63;;;7.50;99.90;;;;;;5059670;28;20255;-81
2021/05/23 02:45:17;;;;;;;0.70;0.70;;;7.50;99.90;;;;;;5059681;28;20186;-81
2021/05/23 02:47:47;;;;;;;1.77;0.60;;;7.40;99.90;;;;;;5061547;28;20185;-81
2021/05/23 02:50:20;;;;;;;1.97;0.90;;;7.40;99.90;;;;;;5060321;28;20248;-81
2021/05/23 02:52:46;;;;;;;0.77;0.70;;;7.40;99.90;;;;;;5060315;28;20489;-81
2021/05/23 02:55:13;;;;;;;0.90;0.90;;;7.40;99.90;;;;;;5060206;28;20228;-81
2021/05/23 02:57:40;;;;;;;1.03;0.70;;;7.40;99.90;;;;;;5059795;28;20176;-81
2021/05/23 03:00:08;;;;;;;0.80;0.67;;;7.30;99.90;;;;;;5062565;28;20404;-81
2021/05/23 03:02:35;;;;;;;0.77;0.77;;;7.20;99.90;;;;;;5060730;28;20671;-81
2021/05/23 03:05:01;;;;;;;0.53;0.50;;;7.20;99.90;;;;;;5060995;28;20424;-81
2021/05/23 03:07:27;;;;;;;1.40;0.77;;;7.20;99.90;;;;;;5061873;28;20416;-81
2021/05/23 03:09:52;;;;;;;0.90;0.70;;;7.00;99.90;;;;;;5062731;28;20418;-81
2021/05/23 03:12:18;;;;;;;0.73;0.73;;;7.00;99.90;;;;;;5063464;28;20178;-81
2021/05/23 03:14:44;;;;;;;1.47;0.77;;;7.10;99.90;;;;;;5063051;28;20205;-81
2021/05/23 03:17:10;;;;;;;0.87;0.87;;;7.00;99.90;;;;;;5062850;28;20264;-81
2021/05/23 03:19:39;;;;;;;0.83;0.60;;;7.00;99.90;;;;;;5064580;28;20165;-81
2021/05/23 03:22:07;;;;;;;0.80;0.80;;;6.80;99.90;;;;;;5063919;28;20420;-81
2021/05/23 03:24:33;;;;;;;0.53;0.53;;;6.70;99.90;;;;;;5063717;28;20185;-82
2021/05/23 03:26:59;;;;;;;1.07;0.77;;;6.60;99.90;;;;;;5063195;28;20181;-82
2021/05/23 03:29:25;;;;;;;0.83;0.83;;;6.60;99.90;;;;;;5063077;28;20408;-82
2021/05/23 03:31:51;;;;;;;0.90;0.77;;;6.40;99.90;;;;;;5061034;28;20177;-81
2021/05/23 03:34:17;;;;;;;0.87;0.70;;;6.30;99.90;;;;;;5058174;28;20678;-81
2021/05/23 03:36:43;;;;;;;1.80;0.80;;;6.30;99.90;;;;;;5057785;28;20173;-81
2021/05/23 03:39:08;;;;;;;0.70;0.70;;;6.30;99.90;;;;;;5057759;28;20400;-81
2021/05/23 03:41:34;;;;;;;0.60;0.60;;;6.10;99.90;;;;;;5056308;28;20179;-81
2021/05/23 03:44:00;;;;;;;0.50;0.50;;;6.10;99.90;;;;;;5056986;28;20243;-81
2021/05/23 03:46:25;;;;;;;0.87;0.80;;;6.00;99.90;;;;;;5057325;28;20177;-81
2021/05/23 03:48:51;;;;;;;0.60;0.60;;;6.00;99.90;;;;;;5055175;28;20177;-81
2021/05/23 03:51:17;;;;;;;0.50;0.50;;;5.90;99.90;;;;;;5056197;28;20190;-81
2021/05/23 03:53:42;;;;;;;0.70;0.70;;;5.90;99.90;;;;;;5055900;28;20197;-81
2021/05/23 03:56:08;;;;;;;2.70;1.20;;;5.80;99.90;;;;;;5053257;28;20201;-81
2021/05/23 03:58:34;;;;;;;0.97;0.77;;;5.80;99.90;;;;;;5063247;28;20173;-81
2021/05/23 04:01:00;;;;;;;0.70;0.70;;;5.90;99.90;;;;;;5056498;28;20173;-81
2021/05/23 04:03:28;;;;;;;1.50;1.00;;;5.90;99.90;;;;;;5058136;28;20219;-81
2021/05/23 04:05:54;;;;;;;0.70;0.70;;;5.90;99.90;;;;;;5056366;28;20181;-81
2021/05/23 04:08:20;;;;;;;1.07;1.00;;;5.90;99.90;;;;;;5057360;28;20423;-81
2021/05/23 04:10:54;;;;;;;0.50;0.50;;;6.00;99.90;;;;;;5057094;28;20902;-82
2021/05/23 04:13:22;;;;;;;0.77;0.77;;;5.90;99.90;;;;;;5056219;28;20246;-81
2021/05/23 04:15:48;;;;;;;0.60;0.60;;;5.90;99.90;;;;;;5055308;28;20455;-81
2021/05/23 04:18:13;;;;;;;0.80;0.80;;;5.80;99.90;;;;;;5056104;28;20416;-81
2021/05/23 04:20:39;;;;;;;1.77;0.63;;;5.80;99.90;;;;;;5056087;28;20632;-81
2021/05/23 04:23:05;;;;;;;0.70;0.70;;;5.80;99.90;;;;;;5055645;28;20204;-81
2021/05/23 04:25:30;;;;;;;1.40;0.60;;;5.80;99.90;;;;;;5054984;28;20638;-81
2021/05/23 04:27:56;;;;;;;0.50;0.50;;;5.70;99.90;;;;;;5061953;28;20208;-81
2021/05/23 04:30:24;;;;;;;1.80;0.60;;;5.70;99.90;;;;;;5064519;28;20193;-81
2021/05/23 04:32:50;;;;;;;0.90;0.77;;;5.70;99.90;;;;;;5059902;28;20611;-81
2021/05/23 04:35:16;;;;;;;0.70;0.60;;;5.80;99.90;;;;;;5064973;28;20463;-81
2021/05/23 04:37:43;;;;;;;0.60;0.60;;;5.70;99.90;;;;;;5066685;28;20185;-82
2021/05/23 04:40:10;;;;;;;0.70;0.70;;;5.70;99.90;;;;;;5068594;28;20838;-81
2021/05/23 04:42:37;;;;;;;1.00;0.70;;;5.70;99.90;;;;;;5064017;28;20803;-81
2021/05/23 04:45:04;;;;;;;0.80;0.80;;;5.70;99.90;;;;;;5062423;28;20420;-81
2021/05/23 04:47:30;;;;;;;0.50;0.50;;;5.70;99.90;;;;;;5060162;28;20423;-81
2021/05/23 04:49:56;;;;;;;0.77;0.77;;;5.70;99.90;;;;;;5060839;28;20459;-81
2021/05/23 04:52:22;;;;;;;0.80;0.80;;;;;;;;;;5062390;28;20261;-81
2021/05/23 04:54:48;;;;;;;0.50;0.50;;;5.80;99.90;;;;;;5060530;28;20275;-81
2021/05/23 04:57:13;;;;;;;0.60;0.57;;;5.80;99.90;;;;;;5060670;28;20428;-81
2021/05/23 04:59:39;;;;;;;0.63;0.63;;;5.80;99.90;;;;;;5061100;28;20185;-81
2021/05/23 05:02:05;;;;;;;0.80;0.80;;;5.80;99.90;;;;;;5061155;28;20182;-81
2021/05/23 05:04:30;;;;;;;0.60;0.60;;;5.80;99.90;;;;;;5061182;28;20194;-81
2021/05/23 05:06:56;;;;;;;0.90;0.90;;;5.90;99.90;;;;;;5062600;28;20178;-81
2021/05/23 05:09:22;;;;;;;0.60;0.60;;;5.90;99.90;;;;;;5062263;28;20180;-81
2021/05/23 05:11:48;;;;;;;0.93;0.93;;;6.00;99.90;;;;;;5060694;28;20177;-81
2021/05/23 05:14:14;;;;;;;1.57;1.07;;;5.90;99.90;;;;;;5061435;28;20193;-81
2021/05/23 05:16:40;;;;;;;2.87;1.13;;;5.90;99.90;;;;;;5059664;28;20231;-81
2021/05/23 05:19:07;;;;;;;1.30;1.10;;;6.00;99.90;;;;;;5060109;28;20639;-81
2021/05/23 05:21:33;;;;;;;1.63;0.90;;;6.10;99.90;;;;;;5060056;28;20466;-81
2021/05/23 05:23:59;;;;;;;1.27;1.00;;;6.20;99.90;;;;;;5060243;28;20213;-81
2021/05/23 05:26:25;;;;;;;3.83;1.10;;;6.10;99.90;;;;;;5061435;28;20177;-82
2021/05/23 05:28:50;;;;;;;1.27;1.17;;;6.20;99.90;;;;;;5060285;28;20239;-82
2021/05/23 05:31:16;;;;;;;1.20;1.10;;;6.20;99.90;;;;;;5059765;28;20189;-80
2021/05/23 05:33:42;;;;;;;1.30;1.20;;;6.20;99.90;;;;;;5059562;28;20265;-80
2021/05/23 05:36:08;;;;;;;1.10;1.00;;;6.30;99.90;;;;;;5060160;28;20248;-81
2021/05/23 05:38:33;;;;;;;1.13;0.80;;;6.30;99.90;;;;;;5061245;28;20174;-80
2021/05/23 05:41:00;;;;;;;4.90;1.10;;;6.30;99.90;;;;;;5059934;28;20182;-80
2021/05/23 05:43:26;;;;;;;0.80;0.80;;;6.40;99.90;;;;;;5061653;28;20189;-80
2021/05/23 05:45:51;;;;;;;0.60;0.60;;;6.40;99.90;;;;;;5059397;28;20590;-80
2021/05/23 05:48:18;;;;;;;1.47;0.60;;;6.40;99.90;;;;;;5060483;28;20177;-80
2021/05/23 05:50:44;;;;;;;0.93;0.73;;;6.40;99.90;;;;;;5059361;28;20178;-80
2021/05/23 05:53:09;;;;;;;1.23;0.80;;;6.40;99.90;;;;;;5060136;28;20515;-80
2021/05/23 05:55:35;;;;;;;0.77;0.77;;;6.40;99.90;;;;;;5059931;28;20229;-80
2021/05/23 05:58:01;;;;;;;1.13;1.03;;;6.50;99.90;;;;;;5059262;28;20191;-80
2021/05/23 06:00:27;;;;;;;2.30;0.77;;;6.50;99.90;;;;;;5058046;28;20268;-80
2021/05/23 06:02:53;;;;;;;1.00;1.00;;;6.50;99.90;;;;;;5057465;28;20479;-81
2021/05/23 06:05:18;;;;;;;0.80;0.80;;;6.60;99.90;;;;;;5056770;28;20173;-80
2021/05/23 06:07:46;;;;;;;0.77;0.70;;;6.70;99.90;;;;;;5060743;28;20225;-81
2021/05/23 06:10:13;;;;;;;0.50;0.50;;;6.70;99.90;;;;;;5064260;28;20184;-81
2021/05/23 06:12:39;;;;;;;0.70;0.70;;;6.80;99.90;;;;;;5062858;28;20202;-81
2021/05/23 06:15:07;;;;;;;1.10;0.90;;;6.80;99.90;;;;;;5061417;28;20297;-81
2021/05/23 06:17:33;;;;;;;0.90;0.90;;;6.90;99.90;;;;;;5063573;28;20197;-81
2021/05/23 06:19:59;;;;;;;0.97;0.80;;;6.90;99.90;;;;;;5062898;28;20411;-80
2021/05/23 06:22:24;;;;;;;0.90;0.90;;;6.80;99.90;;;;;;5062759;28;20185;-81
2021/05/23 06:24:50;;;;;;;0.77;0.77;;;6.80;99.90;;;;;;5063901;28;20178;-81
2021/05/23 06:27:15;;;;;;;0.90;0.67;;;6.80;99.90;;;;;;5062665;28;20200;-81
2021/05/23 06:29:43;;;;;;;0.80;0.80;;;7.00;99.90;;;;;;5061986;28;20201;-81
2021/05/23 06:32:09;;;;;;;1.23;1.13;;;6.90;99.90;;;;;;5063103;28;20189;-81
2021/05/23 06:34:34;;;;;;;1.80;0.67;;;6.90;99.90;;;;;;5063924;28;20208;-81
2021/05/23 06:37:00;;;;;;;1.27;0.60;;;6.90;99.90;;;;;;5063156;28;20715;-82
2021/05/23 06:39:26;;;;;;;0.50;0.50;;;6.90;99.90;;;;;;5066255;28;20256;-81
2021/05/23 06:41:52;;;;;;;0.77;0.77;;;6.80;99.90;;;;;;5063399;28;20173;-81
2021/05/23 06:44:18;;;;;;;1.20;0.80;;;6.80;99.90;;;;;;5062029;28;20194;-81
2021/05/23 06:46:44;;;;;;;1.67;0.60;;;6.90;99.90;;;;;;5062798;28;20233;-81
2021/05/23 06:49:10;;;;;;;1.17;0.80;;;6.90;99.90;;;;;;5061983;28;20463;-81
2021/05/23 06:51:35;;;;;;;1.67;0.60;;;7.00;99.90;;;;;;5062281;28;20173;-81
2021/05/23 06:54:01;;;;;;;1.00;0.50;;;7.00;99.90;;;;;;5061417;28;20205;-82
2021/05/23 06:56:27;;;;;;;0.87;0.87;;;7.00;99.90;;;;;;5062210;28;20216;-81
2021/05/23 06:58:52;;;;;;;0.83;0.80;;;7.00;99.90;;;;;;5063816;28;20181;-80
2021/05/23 07:01:18;;;;;;;0.80;0.80;;;7.00;99.90;;;;;;5065352;28;20181;-81
2021/05/23 07:03:44;;;;;;;0.90;0.90;;;7.00;99.90;;;;;;5063482;28;20232;-80
2021/05/23 07:06:10;;;;;;;3.53;0.90;;;7.00;99.90;;;;;;5057913;28;20566;-80
2021/05/23 07:08:35;;;;;;;0.70;0.70;;;7.10;99.90;;;;;;5056659;28;20185;-80
2021/05/23 07:11:01;;;;;;;0.90;0.57;;;7.20;99.90;;;;;;5058354;28;20185;-80
2021/05/23 07:13:27;;;;;;;0.70;0.70;;;7.30;99.90;;;;;;5068155;28;20208;-80
2021/05/23 07:15:53;;;;;;;1.40;0.70;;;7.30;99.90;;;;;;5058370;28;20292;-81
2021/05/23 07:18:19;;;;;;;1.10;1.00;;;7.50;99.90;;;;;;5060590;28;20193;-81
2021/05/23 07:20:46;;;;;;;1.60;1.20;;;7.60;99.90;;;;;;5061351;28;20219;-81
2021/05/23 07:23:12;;;;;;;2.63;0.90;;;7.80;99.90;;;;;;5058979;28;20233;-80
2021/05/23 07:25:52;;;;;;;1.23;0.70;;;7.80;99.90;;;;;;5097878;28;20481;-81
2021/05/23 07:28:18;;;;;;;0.77;0.70;;;7.80;99.90;;;;;;5080107;28;20671;-81
2021/05/23 07:30:44;;;;;;;1.10;0.70;;;7.80;99.90;;;;;;5098017;28;20557;-82
2021/05/23 07:33:10;;;;;;;1.23;0.80;;;7.80;99.90;;;;;;5098177;28;20203;-81
2021/05/23 07:35:36;;;;;;;1.13;0.80;;;7.90;99.90;;;;;;5080011;28;20210;-81
2021/05/23 07:38:02;;;;;;;0.60;0.60;;;7.90;99.90;;;;;;5098806;28;20224;-81
2021/05/23 07:40:27;;;;;;;0.70;0.67;;;7.90;99.90;;;;;;5080160;28;20195;-81
2021/05/23 07:42:53;;;;;;;0.83;0.70;;;8.00;99.90;;;;;;5098515;28;20290;-82
2021/05/23 07:45:19;;;;;;;0.90;0.80;;;8.10;99.90;;;;;;5097620;28;20240;-81
2021/05/23 07:47:44;;;;;;;0.87;0.60;;;8.20;99.90;;;;;;5079677;28;20171;-81
2021/05/23 07:50:12;;;;;;;0.60;0.60;;;8.20;99.90;;;;;;5097894;28;20172;-81
2021/05/23 07:52:38;;;;;;;0.80;0.60;;;8.30;99.90;;;;;;5099510;28;20197;-81
2021/05/23 07:55:05;;;;;;;1.57;0.43;;;8.50;99.90;;;;;;5081160;28;20665;-81
2021/05/23 07:57:31;;;;;;;1.23;0.60;;;8.60;99.90;;;;;;5099574;28;20182;-82
2021/05/23 07:59:56;;;;;;;0.83;0.70;;;8.80;99.90;;;;;;5080212;28;20183;-82
2021/05/23 08:02:22;;;;;;;1.00;0.70;;;8.90;99.90;;;;;;5079675;28;20178;-82
2021/05/23 08:04:48;;;;;;;1.53;0.70;;;9.00;99.90;;;;;;5079648;28;20248;-82
2021/05/23 08:07:13;;;;;;;2.13;1.00;;;9.00;99.90;;;;;;5080073;28;20178;-81
2021/05/23 08:09:39;;;;;;;2.43;1.40;;;8.90;99.90;;;;;;5098119;28;20169;-82
2021/05/23 08:12:05;;;;;;;1.10;0.70;;;8.90;99.90;;;;;;5079015;28;20172;-82
2021/05/23 08:14:31;;;;;;;1.00;0.80;;;8.80;99.90;;;;;;5077753;28;20200;-81
2021/05/23 08:16:56;;;;;;;0.50;0.50;;;8.80;99.90;;;;;;5095893;28;20177;-81
2021/05/23 08:19:22;;;;;;;0.67;0.60;;;9.20;99.90;;;;;;5079217;28;20184;-82
2021/05/23 08:21:48;;;;;;;2.67;0.77;;;9.90;99.90;;;;;;5086406;28;20262;-82
2021/05/23 08:24:14;;;;;;;1.10;0.70;;;10.80;99.90;;;;;;5080837;28;20220;-82
2021/05/23 08:26:40;;;;;;;1.30;0.60;;;11.40;99.90;;;;;;5079751;28;20186;-82
2021/05/23 08:29:06;;;;;;;1.60;0.70;;;10.90;99.90;;;;;;5098732;28;20176;-82
2021/05/23 08:31:33;;;;;;;3.77;1.30;;;10.20;99.90;;;;;;5098621;28;20180;-83
2021/05/23 08:33:58;;;;;;;1.30;0.70;;;9.80;99.90;;;;;;5099556;28;20211;-82
2021/05/23 08:36:24;;;;;;;1.70;0.73;;;9.40;99.90;;;;;;5073205;28;20177;-83
2021/05/23 08:38:50;;;;;;;0.70;0.60;;;9.10;99.90;;;;;;5086479;28;20599;-82
2021/05/23 08:41:17;;;;;;;0.80;0.57;;;9.10;99.90;;;;;;5092001;28;20236;-82
2021/05/23 08:43:45;;;;;;;1.17;1.00;;;9.00;99.90;;;;;;5069449;28;20203;-83
2021/05/23 08:46:10;;;;;;;1.40;0.67;;;9.10;99.90;;;;;;5068779;28;20203;-82
2021/05/23 08:48:39;;;;;;;1.17;0.80;;;9.20;99.90;;;;;;5087039;28;20173;-83
2021/05/23 08:51:05;;;;;;;2.50;0.70;;;9.40;99.90;;;;;;5086071;28;20232;-82
2021/05/23 08:53:31;;;;;;;1.93;0.87;;;10.00;99.90;;;;;;5068974;28;20590;-82
2021/05/23 08:55:57;;;;;;;1.10;0.83;;;10.80;99.90;;;;;;5086719;28;20560;-82
2021/05/23 08:58:24;;;;;;;1.23;0.80;;;10.90;99.90;;;;;;5068710;28;20277;-82
2021/05/23 09:00:51;;;;;;;1.77;0.50;;;10.80;99.90;;;;;;5087022;28;20176;-82
2021/05/23 09:03:17;;;;;;;0.93;0.50;;;10.90;99.90;;;;;;5068118;28;20200;-82
2021/05/23 09:05:56;;;;;;;2.90;0.60;;;10.90;99.90;;;;;;5085309;28;20203;-82
2021/05/23 09:08:30;;;;;;;1.27;0.70;;;11.10;99.90;;;;;;5085639;28;20576;-83
2021/05/23 09:11:02;;;;;;;1.77;0.60;;;11.70;99.90;;;;;;5068702;28;20172;-83
2021/05/23 09:13:35;;;;;;;0.80;0.60;;;12.50;99.90;;;;;;5068428;28;20196;-83
2021/05/23 09:16:09;;;;;;;1.30;0.80;;;12.80;99.90;;;;;;5067717;28;20172;-83
2021/05/23 09:18:59;;;;;;;0.60;0.50;;;13.20;99.90;;;;;;5067867;28;20732;-83
2021/05/23 09:21:29;;;;;;;1.00;0.40;;;13.30;99.90;;;;;;5055416;28;20196;-83
2021/05/23 09:23:56;;;;;;;1.23;0.40;;;13.30;99.90;;;;;;5085367;28;20209;-83
2021/05/23 09:26:30;;;;;;;1.47;0.70;;;13.20;99.90;;;;;;5068980;28;20173;-83
2021/05/23 09:29:07;;;;;;;1.00;0.50;;;13.20;99.90;;;;;;5088934;28;20193;-82
2021/05/23 09:31:34;;;;;;;1.20;0.50;;;13.30;99.90;;;;;;5085850;28;20161;-83
2021/05/23 09:33:59;;;;;;;1.33;0.40;;;13.20;99.90;;;;;;5085928;28;20193;-82
2021/05/23 09:36:26;;;;;;;1.17;0.70;;;12.80;99.90;;;;;;5067917;28;20208;-83
2021/05/23 09:38:58;;;;;;;1.53;1.07;;;12.20;99.90;;;;;;5068381;28;20180;-83
2021/05/23 09:41:30;;;;;;;3.97;0.90;;;12.00;99.90;;;;;;5067660;28;20223;-82
2021/05/23 09:44:28;;;;;;;1.57;0.90;;;12.00;99.90;;;;;;5085711;28;20208;-82
2021/05/23 09:47:02;;;;;;;2.50;0.70;;;12.20;99.90;;;;;;5013750;28;20189;-83
2021/05/23 09:49:30;;;;;;;1.67;0.80;;;12.80;99.90;;;;;;5067604;28;20200;-83
2021/05/23 09:52:04;;;;;;;0.50;0.50;;;12.80;99.90;;;;;;5067951;28;20184;-83
2021/05/23 09:54:41;;;;;;;1.03;0.60;;;13.20;99.90;;;;;;5069688;28;20203;-83
2021/05/23 09:57:19;;;;;;;3.13;0.97;;;13.50;99.90;;;;;;5069801;28;20649;-83
2021/05/23 09:59:45;;;;;;;3.57;0.80;;;14.60;99.90;;;;;;5085236;28;20631;-83
2021/05/23 10:02:13;;;;;;;1.13;0.80;;;14.40;99.90;;;;;;5085129;28;20228;-83
2021/05/23 10:04:41;;;;;;;1.27;0.60;;;14.00;99.90;;;;;;5082171;28;20258;-81
2021/05/23 10:07:13;;;;;;;2.67;0.60;;;13.10;99.90;;;;;;5074891;28;20179;-81
2021/05/23 10:09:40;;;;;;;0.80;0.60;;;12.70;99.90;;;;;;5064450;28;20511;-81
2021/05/23 10:12:10;;;;;;;1.83;0.70;;;12.90;99.90;;;;;;5064849;28;20235;-81
2021/05/23 10:14:37;;;;;;;0.70;0.50;;;12.80;99.90;;;;;;5065252;28;20169;-81
2021/05/23 10:17:06;;;;;;;0.63;0.60;;;12.60;99.90;;;;;;5064459;28;20183;-81
2021/05/23 10:19:34;;;;;;;1.10;0.70;;;12.60;99.90;;;;;;5065221;28;20173;-81
2021/05/23 10:22:07;;;;;;;0.60;0.60;;;12.60;99.90;;;;;;5082759;28;20203;-82
2021/05/23 10:24:37;;;;;;;2.50;0.97;;;12.90;99.90;;;;;;5064373;28;20219;-82
2021/05/23 10:27:06;;;;;;;1.07;0.60;;;13.50;99.90;;;;;;5064043;28;20173;-81
2021/05/23 10:29:38;;;;;;;0.57;0.57;;;13.60;99.90;;;;;;5065063;28;20180;-82
2021/05/23 10:32:07;;;;;;;1.23;0.60;;;14.10;99.90;;;;;;5065512;28;20180;-82
2021/05/23 10:34:46;;;;;;;1.03;0.80;;;13.90;99.90;;;;;;5082561;28;20173;-82
2021/05/23 10:37:13;;;;;;;0.83;0.50;;;13.30;99.90;;;;;;5083974;28;20168;-82
2021/05/23 10:39:43;;;;;;;1.73;0.70;;;14.10;99.90;;;;;;5071444;28;20177;-81
2021/05/23 10:42:13;;;;;;;1.70;0.60;;;14.90;99.90;;;;;;5069141;28;20176;-82
2021/05/23 10:44:47;;;;;;;4.10;0.50;;;15.30;99.90;;;;;;5085409;28;20666;-82
2021/05/23 10:47:20;;;;;;;1.27;0.80;;;15.20;99.90;;;;;;5067709;28;20184;-82
2021/05/23 10:50:00;;;;;;;1.60;0.60;;;15.10;99.90;;;;;;5068180;28;20181;-82
2021/05/23 10:52:28;;;;;;;1.43;0.90;;;15.10;99.90;;;;;;5067838;28;20234;-83
2021/05/23 10:54:58;;;;;;;2.03;0.70;;;15.70;99.90;;;;;;5066560;28;20176;-82
2021/05/23 10:57:23;;;;;;;2.67;0.60;;;16.10;99.90;;;;;;5084452;28;20169;-82
2021/05/23 11:00:04;;;;;;;1.20;0.70;;;16.30;99.30;;;;;;5084684;28;20315;-82
2021/05/23 11:02:38;;;;;;;2.23;1.07;;;15.90;99.90;;;;;;5067660;28;20193;-82
2021/05/23 11:05:12;;;;;;;2.70;0.70;;;16.20;99.90;;;;;;5066916;28;20613;-82
2021/05/23 11:07:38;;;;;;;1.80;0.67;;;16.80;98.90;;;;;;5066302;28;20173;-82
2021/05/23 11:10:19;;;;;;;1.10;0.80;;;16.90;96.40;;;;;;5066242;28;20178;-81
2021/05/23 11:12:53;;;;;;;1.23;0.60;;;16.20;96.30;;;;;;5066307;28;20199;-81
2021/05/23 11:15:19;;;;;;;0.70;0.60;;;15.40;95.80;;;;;;5065355;28;20178;-82
2021/05/23 11:17:49;;;;;;;1.43;0.73;;;15.70;95.30;;;;;;5065772;28;20176;-82
2021/05/23 11:20:22;;;;;;;2.83;0.70;;;15.20;95.60;;;;;;5083265;28;20178;-82
2021/05/23 11:23:03;;;;;;;2.50;1.00;;;14.20;96.40;;;;;;5065749;28;20678;-82
2021/05/23 11:25:30;;;;;;;2.27;0.53;;;13.60;99.10;;;;;;5065589;28;20219;-82
2021/05/23 11:28:07;;;;;;;1.33;0.67;;;13.10;99.70;;;;;;5085194;28;20618;-81
2021/05/23 11:30:35;;;;;;;0.87;0.63;;;13.20;99.90;;;;;;5085138;28;20164;-82
2021/05/23 11:33:10;;;;;;;1.03;0.67;;;13.70;99.90;;;;;;5067513;28;20189;-82
2021/05/23 11:35:38;;;;;;;2.33;0.57;;;14.60;99.90;;;;;;5066122;28;20172;-81
2021/05/23 11:38:04;;;;;;;1.93;0.97;;;15.30;99.90;;;;;;5066236;28;20177;-82
2021/05/23 11:40:41;;;;;;;1.00;0.67;;;16.00;99.90;;;;;;5064468;28;20264;-82
2021/05/23 11:43:18;;;;;;;0.67;0.67;;;16.20;96.90;;;;;;5065351;28;20204;-82
2021/05/23 11:45:52;;;;;;;0.83;0.70;;;15.90;96.40;;;;;;5084179;28;20200;-82
2021/05/23 11:48:38;;;;;;;1.50;0.70;;;16.60;93.90;;;;;;5084677;28;20591;-83
2021/05/23 11:51:05;;;;;;;0.97;0.60;;;16.40;92.60;;;;;;5068630;28;20241;-82
2021/05/23 11:53:44;;;;;;;3.07;0.80;;;14.90;91.90;;;;;;5086870;28;20584;-82
2021/05/23 11:56:23;;;;;;;2.43;0.87;;;14.90;95.60;;;;;;5065244;28;20177;-82
2021/05/23 11:59:00;;;;;;;0.97;0.70;;;15.00;93.00;;;;;;5064774;28;20244;-82
2021/05/23 12:01:31;;;;;;;2.13;1.27;;;15.50;90.80;;;;;;5081473;28;20169;-81
2021/05/23 12:04:08;;;;;;;1.13;0.87;;;15.80;92.50;;;;;;5082398;28;20198;-81
2021/05/23 12:06:38;;;;;;;0.70;0.60;;;15.80;90.60;;;;;;5083204;28;20161;-82
2021/05/23 12:09:29;;;;;;;0.90;0.60;;;16.90;90.90;;;;;;5082712;28;20284;-81
2021/05/23 12:11:57;;;;;;;0.90;0.70;;;17.20;87.30;;;;;;5084882;28;20169;-81
2021/05/23 12:14:24;;;;;;;2.20;0.60;;;17.70;83.20;;;;;;5067991;28;20227;-82
2021/05/23 12:17:01;;;;;;;9.37;5.13;;;17.90;88.50;;;;;;5066421;28;20180;-80
2021/05/23 12:19:55;;;;;;;1.70;0.90;;;17.70;87.90;;;;;;5068065;28;20517;-81
2021/05/23 12:22:27;;;;;;;0.60;0.60;;;18.00;80.70;;;;;;5068458;28;20178;-81
2021/05/23 12:24:55;;;;;;;2.07;0.73;;;18.90;79.90;;;;;;5067518;28;20206;-81
2021/05/23 12:27:31;;;;;;;0.97;0.80;;;18.80;74.00;;;;;;5067365;28;20667;-81
2021/05/23 12:30:25;;;;;;;5.23;1.17;;;18.50;75.20;;;;;;5066987;28;20255;-81
2021/05/23 12:33:00;;;;;;;0.80;0.60;;;17.70;75.10;;;;;;5068279;28;20660;-81
2021/05/23 12:35:30;;;;;;;1.73;0.70;;;18.30;74.50;;;;;;5084817;28;20176;-81
2021/05/23 12:37:58;;;;;;;1.00;0.70;;;18.40;76.10;;;;;;5085465;28;20174;-82
2021/05/23 12:40:33;;;;;;;3.40;0.97;;;18.90;73.20;;;;;;5067647;28;20588;-82
2021/05/23 12:43:11;;;;;;;1.90;1.60;;;18.80;73.40;;;;;;5067068;28;20251;-81
2021/05/23 12:45:41;;;;;;;1.73;0.90;;;19.00;74.40;;;;;;5066372;28;20232;-81
2021/05/23 12:48:09;;;;;;;1.00;0.50;;;18.90;76.50;;;;;;5083355;28;20229;-81
2021/05/23 12:50:55;;;;;;;1.17;0.70;;;19.20;74.40;;;;;;5065704;28;20221;-81
2021/05/23 12:53:25;;;;;;;0.53;0.50;;;18.10;75.20;;;;;;5083930;28;20614;-81
2021/05/23 12:55:52;;;;;;;0.60;0.60;;;17.30;77.80;;;;;;5073451;28;20171;-82
2021/05/23 12:58:19;;;;;;;1.20;0.80;;;18.20;77.50;;;;;;5085182;28;20182;-82
2021/05/23 13:00:46;;;;;;;1.30;0.60;;;19.50;76.00;;;;;;5085789;28;20226;-82